Time;durP1;ratioP1;P1;durP2;ratioP2;P2;SDS_P1;SDS_P2;PMS_P1;PMS_P2;Temp;Humidity;BMP_temperature;BMP_pressure;BME280_temperature;BME280_humidity;BME280_pressure;Samples;Min_cycle;Max_cycle;Signal;HPM_P1;HPM_P2
2021/11/28 00:00:23;;;;;;;2.15;1.95;;;;;;;-15.68;91.58;100997.03;5074374;28;20052;-64
2021/11/28 00:02:50;;;;;;;2.22;2.03;;;;;;;-15.73;90.14;100996.81;5074610;28;20049;-64
2021/11/28 00:05:20;;;;;;;1.67;1.52;;;;;;;-15.46;90.57;100996.53;5073882;28;20045;-64
2021/11/28 00:11:00;;;;;;;1.30;1.20;;;;;;;-15.26;90.53;100998.44;5150983;27;20112;-62
2021/11/28 00:13:46;;;;;;;2.30;2.15;;;;;;;-15.07;90.12;100991.94;5150642;27;20137;-65
2021/11/28 00:16:14;;;;;;;2.05;1.95;;;;;;;-14.89;90.27;101002.88;5151061;27;20477;-65
2021/11/28 00:18:41;;;;;;;2.53;2.03;;;;;;;-14.81;90.71;100998.28;5150740;27;20071;-65
2021/11/28 00:21:09;;;;;;;3.72;1.52;;;;;;;-14.81;90.46;101011.63;5151175;27;20138;-65
2021/11/28 00:23:37;;;;;;;2.15;1.95;;;;;;;-14.91;90.87;101004.44;5150565;27;20067;-65
2021/11/28 00:26:06;;;;;;;2.63;2.05;;;;;;;-14.76;89.91;101007.72;5151029;27;20126;-65
2021/11/28 00:28:33;;;;;;;2.03;1.92;;;;;;;-14.58;90.41;101005.28;5150424;27;20047;-65
2021/11/28 00:31:00;;;;;;;;;;;;;;;-14.62;90.26;101005.91;5151164;27;20081;-65
2021/11/28 00:33:27;;;;;;;5.25;1.73;;;;;;;-14.46;90.40;101000.03;5150208;27;20007;-65
2021/11/28 00:35:54;;;;;;;1.85;1.75;;;;;;;-14.39;90.12;100998.66;5150692;27;20043;-65
2021/11/28 00:38:21;;;;;;;1.48;1.38;;;;;;;-14.31;90.17;100995.75;5150241;27;20051;-65
2021/11/28 00:40:47;;;;;;;2.35;1.85;;;;;;;-14.32;89.97;100986.56;5150881;27;20471;-65
2021/11/28 00:43:18;;;;;;;1.50;1.40;;;;;;;-14.37;90.40;100989.63;5150510;27;20465;-65
2021/11/28 00:45:45;;;;;;;1.52;1.42;;;;;;;-14.31;90.24;100983.25;5150405;27;20489;-65
2021/11/28 00:48:13;;;;;;;1.45;1.38;;;;;;;-14.25;90.54;100982.72;5150697;27;20072;-65
2021/11/28 00:50:44;;;;;;;1.65;1.55;;;;;;;-14.33;90.24;100986.47;5149932;27;20047;-65
2021/11/28 00:53:13;;;;;;;2.83;2.42;;;;;;;-14.49;90.92;100984.84;5150323;27;20051;-65
2021/11/28 00:55:40;;;;;;;2.20;2.00;;;;;;;-14.44;91.15;100985.94;5150053;27;20070;-65
2021/11/28 00:58:07;;;;;;;1.45;1.42;;;;;;;-14.34;90.28;100990.59;5150482;27;20145;-65
2021/11/28 01:00:36;;;;;;;;;;;;;;;-14.39;89.74;100989.53;5150359;27;20572;-65
2021/11/28 01:03:03;;;;;;;1.02;1.02;;;;;;;-14.47;90.39;100994.16;5150052;27;19972;-65
2021/11/28 01:05:30;;;;;;;1.60;1.50;;;;;;;-14.51;90.03;100989.78;5150136;27;20134;-65
2021/11/28 01:07:57;;;;;;;1.85;1.75;;;;;;;-14.54;90.41;100991.28;5150058;27;20074;-65
2021/11/28 01:10:24;;;;;;;2.58;2.03;;;;;;;-14.54;89.95;100988.78;5149443;27;20054;-65
2021/11/28 01:12:51;;;;;;;2.30;1.95;;;;;;;-14.62;90.43;100985.91;5149882;27;20053;-65
2021/11/28 01:15:17;;;;;;;;;;;;;;;-14.70;90.43;100980.53;5150660;27;20168;-65
2021/11/28 01:17:46;;;;;;;1.33;1.23;;;;;;;-14.64;89.84;100975.00;5149952;27;19926;-65
2021/11/28 01:20:14;;;;;;;1.00;1.00;;;;;;;-14.56;89.64;100978.75;5147097;27;20122;-65
2021/11/28 01:22:41;;;;;;;1.85;1.75;;;;;;;-14.80;89.92;100970.88;5135596;27;20134;-65
2021/11/28 01:25:13;;;;;;;1.90;1.77;;;;;;;-14.93;90.40;100971.03;5135843;27;20519;-65
2021/11/28 01:27:40;;;;;;;1.10;1.10;;;;;;;-14.54;89.60;100976.31;5135709;27;20536;-65
2021/11/28 01:30:09;;;;;;;1.95;1.83;;;;;;;-14.54;89.42;100971.31;5136047;27;20141;-65
2021/11/28 01:32:37;;;;;;;4.68;1.52;;;;;;;-14.62;89.17;100982.56;5135529;27;20151;-65
2021/11/28 01:35:07;;;;;;;1.98;1.67;;;;;;;-14.82;90.25;100969.06;5135937;27;20058;-65
2021/11/28 01:37:35;;;;;;;2.63;2.42;;;;;;;-14.71;89.67;100970.50;5135760;27;20174;-65
2021/11/28 01:40:05;;;;;;;1.20;1.20;;;;;;;-14.60;89.91;100966.88;5135527;27;20043;-65
2021/11/28 01:42:38;;;;;;;2.85;1.73;;;;;;;-14.77;89.54;100976.03;5135261;27;20050;-65
2021/11/28 01:45:07;;;;;;;2.13;1.73;;;;;;;-14.51;88.71;100978.94;5135903;27;20079;-65
2021/11/28 01:47:35;;;;;;;2.25;1.95;;;;;;;-14.54;88.77;100972.19;5135145;27;20078;-65
2021/11/28 01:50:02;;;;;;;1.80;1.70;;;;;;;-14.46;89.18;100965.03;5135630;27;20139;-65
2021/11/28 01:52:30;;;;;;;1.95;1.80;;;;;;;-14.60;89.45;100968.50;5135070;27;20051;-65
2021/11/28 01:54:57;;;;;;;1.77;1.65;;;;;;;-14.41;88.35;100972.75;5135304;27;20146;-65
2021/11/28 01:57:24;;;;;;;3.88;1.80;;;;;;;-14.50;89.73;100973.16;5135302;27;20086;-62
2021/11/28 01:59:51;;;;;;;1.88;1.70;;;;;;;-14.26;88.12;100970.97;5135209;27;20075;-62
2021/11/28 02:02:18;;;;;;;1.25;1.25;;;;;;;-14.33;88.86;100966.47;5135403;27;20142;-62
2021/11/28 02:04:46;;;;;;;;;;;;;;;-14.61;89.94;100975.16;5135557;27;20047;-65
2021/11/28 02:07:14;;;;;;;1.83;1.70;;;;;;;-14.56;90.12;100971.25;5134945;27;20383;-65
2021/11/28 02:09:43;;;;;;;2.03;1.83;;;;;;;-14.29;89.11;100969.19;5134457;27;20510;-65
2021/11/28 02:12:10;;;;;;;1.08;1.08;;;;;;;-14.19;88.89;100960.50;5134993;27;20130;-65
2021/11/28 02:14:37;;;;;;;;;;;;;;;-14.12;89.19;100972.53;5135153;27;20083;-65
2021/11/28 02:17:04;;;;;;;;;;;;;;;-14.15;88.66;100967.38;5135467;27;19951;-65
2021/11/28 02:19:31;;;;;;;1.50;1.40;;;;;;;-14.21;89.44;100977.06;5134630;27;19965;-65
2021/11/28 02:22:00;;;;;;;1.85;1.23;;;;;;;-14.15;89.95;100972.38;5134820;27;20504;-65
2021/11/28 02:24:27;;;;;;;4.65;2.33;;;;;;;-14.23;90.27;100981.13;5134476;27;20146;-65
2021/11/28 02:26:54;;;;;;;3.17;2.72;;;;;;;-14.13;90.21;100964.94;5135022;27;20066;-65
2021/11/28 02:29:21;;;;;;;0.90;0.90;;;;;;;-13.99;90.10;100968.09;5134529;27;20065;-65
2021/11/28 02:31:48;;;;;;;1.38;1.30;;;;;;;-13.99;90.50;100968.97;5133961;27;20497;-65
2021/11/28 02:34:15;;;;;;;2.28;1.88;;;;;;;-14.00;90.78;100958.88;5134421;27;20043;-65
2021/11/28 02:36:42;;;;;;;;;;;;;;;-13.92;91.09;100965.97;5134977;27;20043;-65
2021/11/28 02:39:10;;;;;;;1.92;1.52;;;;;;;-13.83;91.27;100965.53;5134671;27;19926;-65
2021/11/28 02:41:38;;;;;;;1.15;1.15;;;;;;;-13.76;91.40;100962.53;5134207;27;20145;-65
2021/11/28 02:44:05;;;;;;;4.93;1.80;;;;;;;-13.82;91.31;100959.72;5134570;27;20043;-65
2021/11/28 02:46:32;;;;;;;1.90;1.77;;;;;;;-13.89;91.90;100951.09;5134079;27;20130;-65
2021/11/28 02:48:59;;;;;;;1.92;1.75;;;;;;;-13.70;91.62;100959.44;5134607;27;20047;-65
2021/11/28 02:51:26;;;;;;;2.10;1.67;;;;;;;-13.70;91.67;100966.97;5133824;27;20050;-65
2021/11/28 02:53:53;;;;;;;2.97;1.75;;;;;;;-13.81;91.91;100973.97;5134397;27;20047;-65
2021/11/28 02:56:21;;;;;;;1.63;1.50;;;;;;;-13.84;91.77;100962.19;5133955;27;20142;-65
2021/11/28 02:58:48;;;;;;;1.73;1.60;;;;;;;-13.98;91.94;100968.16;5134017;27;20042;-65
2021/11/28 03:01:18;;;;;;;2.30;1.77;;;;;;;-14.02;91.51;100971.31;5134040;27;20481;-65
2021/11/28 03:03:45;;;;;;;1.70;1.60;;;;;;;-14.11;91.16;100970.88;5134218;27;20073;-65
2021/11/28 03:06:12;;;;;;;1.00;1.00;;;;;;;-14.02;92.11;100965.44;5134169;27;20043;-65
2021/11/28 03:08:39;;;;;;;2.88;1.90;;;;;;;-14.20;91.94;100958.81;5133705;27;20085;-65
2021/11/28 03:11:08;;;;;;;1.98;1.77;;;;;;;-14.16;91.87;100952.28;5133995;27;20049;-65
2021/11/28 03:13:40;;;;;;;1.33;1.33;;;;;;;-14.10;92.04;100950.94;5133845;27;20134;-65
2021/11/28 03:16:10;;;;;;;2.45;2.10;;;;;;;-14.12;91.52;100952.50;5134006;27;20134;-65
2021/11/28 03:18:37;;;;;;;2.35;1.70;;;;;;;-14.20;91.41;100953.78;5133454;27;20485;-65
2021/11/28 03:21:07;;;;;;;1.38;1.38;;;;;;;-14.21;91.33;100956.22;5133629;27;20138;-65
2021/11/28 03:23:35;;;;;;;1.70;1.60;;;;;;;-14.28;91.72;100957.53;5133371;27;20075;-65
2021/11/28 03:26:11;;;;;;;2.15;1.90;;;;;;;-14.27;91.50;100957.63;5133509;27;20138;-65
2021/11/28 03:28:43;;;;;;;1.52;1.42;;;;;;;-14.11;91.18;100953.38;5133210;27;20046;-64
2021/11/28 03:31:10;;;;;;;2.38;2.08;;;;;;;-14.19;90.92;100955.50;5133783;27;20066;-64
2021/11/28 03:33:38;;;;;;;4.30;2.42;;;;;;;-14.27;91.77;100955.13;5133517;27;20081;-64
2021/11/28 03:36:07;;;;;;;3.35;1.90;;;;;;;-14.13;91.45;100949.94;5133643;27;20080;-64
2021/11/28 03:38:34;;;;;;;2.00;1.80;;;;;;;-14.31;90.15;100950.75;5133030;27;20138;-64
2021/11/28 03:41:01;;;;;;;1.55;1.42;;;;;;;-14.33;89.80;100949.84;5133262;27;20142;-64
2021/11/28 03:43:28;;;;;;;1.10;1.10;;;;;;;-14.42;90.67;100951.88;5132867;27;20057;-64
2021/11/28 03:45:57;;;;;;;;;;;;;;;-14.62;90.57;100965.06;5133594;27;20089;-64
2021/11/28 03:48:24;;;;;;;2.25;1.80;;;;;;;-14.62;89.59;100960.94;5133112;27;19966;-64
2021/11/28 03:50:51;;;;;;;1.42;1.33;;;;;;;-14.85;88.75;100961.44;5133075;27;20078;-64
2021/11/28 03:53:18;;;;;;;1.63;1.45;;;;;;;-15.15;88.96;100957.47;5133127;27;20553;-64
2021/11/28 03:55:45;;;;;;;1.77;1.67;;;;;;;-15.29;89.03;100957.50;5133469;27;20095;-64
2021/11/28 03:58:12;;;;;;;;;;;;;;;-15.37;89.71;100947.97;5133549;27;20567;-64
2021/11/28 04:00:39;;;;;;;;;;;;;;;-15.40;89.64;100952.81;5133165;27;20014;-64
2021/11/28 04:03:10;;;;;;;1.60;1.50;;;;;;;-15.48;89.65;100948.22;5133009;27;19945;-62
2021/11/28 04:05:37;;;;;;;3.53;1.98;;;;;;;-15.50;89.85;100949.75;5132700;27;20070;-63
2021/11/28 04:08:04;;;;;;;1.50;1.45;;;;;;;-15.41;91.35;100946.13;5133303;28;20164;-65
2021/11/28 04:10:32;;;;;;;1.23;1.23;;;;;;;-15.55;90.62;100948.66;5132324;28;20146;-63
2021/11/28 04:12:59;;;;;;;1.73;1.55;;;;;;;-15.75;90.58;100953.47;5133161;28;20574;-63
2021/11/28 04:15:26;;;;;;;1.70;1.60;;;;;;;-15.73;90.05;100961.03;5132625;28;20047;-63
2021/11/28 04:17:53;;;;;;;1.25;1.20;;;;;;;-15.69;90.32;100952.94;5132886;28;20145;-63
2021/11/28 04:20:21;;;;;;;1.60;1.50;;;;;;;-15.85;90.31;100953.75;5132521;28;20488;-63
2021/11/28 04:22:48;;;;;;;1.92;1.80;;;;;;;-15.85;89.38;100951.25;5132712;28;20505;-63
2021/11/28 04:25:16;;;;;;;2.90;1.60;;;;;;;-15.80;90.38;100954.84;5132803;28;20435;-63
2021/11/28 04:27:43;;;;;;;1.73;1.63;;;;;;;-15.76;90.06;100943.44;5132860;28;20076;-63
2021/11/28 04:30:15;;;;;;;4.15;2.33;;;;;;;-15.81;90.10;100949.00;5132702;28;20043;-63
2021/11/28 04:32:42;;;;;;;2.00;1.80;;;;;;;-15.62;90.53;100945.81;5132458;28;20142;-63
2021/11/28 04:35:10;;;;;;;4.55;2.03;;;;;;;-15.71;89.46;100947.03;5132942;28;20069;-65
2021/11/28 04:37:38;;;;;;;1.73;1.63;;;;;;;-15.64;89.77;100942.41;5132501;28;20489;-63
2021/11/28 04:40:08;;;;;;;3.55;2.28;;;;;;;-15.93;89.67;100942.50;5132847;28;20092;-63
2021/11/28 04:42:35;;;;;;;4.25;2.17;;;;;;;-15.76;89.95;100944.28;5132723;28;20133;-63
2021/11/28 04:45:02;;;;;;;5.50;1.98;;;;;;;-15.78;88.41;100940.00;5132971;28;20043;-63
2021/11/28 04:47:29;;;;;;;;;;;;;;;-15.68;90.45;100937.19;5132792;28;20564;-63
2021/11/28 04:49:56;;;;;;;1.20;1.17;;;;;;;-15.81;88.40;100945.66;5132702;28;20010;-63
2021/11/28 04:52:23;;;;;;;1.83;1.73;;;;;;;-15.91;89.50;100948.44;5132651;28;20043;-64
2021/11/28 04:54:51;;;;;;;1.33;1.23;;;;;;;-16.22;88.54;100946.75;5132889;27;20079;-63
2021/11/28 04:57:19;;;;;;;1.42;1.33;;;;;;;-16.33;87.93;100942.81;5135930;27;20055;-63
2021/11/28 04:59:46;;;;;;;2.08;1.88;;;;;;;-16.42;88.20;100944.78;5136638;27;20300;-63
2021/11/28 05:02:13;;;;;;;;;;;;;;;-16.36;88.19;100941.00;5136767;27;20086;-63
2021/11/28 05:04:40;;;;;;;1.20;1.20;;;;;;;-16.17;90.60;100942.03;5136145;27;20411;-63
2021/11/28 05:07:07;;;;;;;;;;;;;;;-16.15;90.29;100940.50;5137000;27;20043;-63
2021/11/28 05:09:34;;;;;;;0.88;0.88;;;;;;;-16.07;90.54;100947.59;5135779;27;20388;-63
2021/11/28 05:12:02;;;;;;;;;;;;;;;-16.08;90.00;100940.03;5137144;27;20051;-63
2021/11/28 05:14:29;;;;;;;2.60;2.25;;;;;;;-15.87;90.16;100941.22;5136042;27;20010;-63
2021/11/28 05:16:56;;;;;;;1.70;1.60;;;;;;;-15.88;90.11;100943.63;5136073;27;20408;-63
2021/11/28 05:19:24;;;;;;;1.65;1.55;;;;;;;-15.93;89.91;100942.50;5135808;27;20143;-64
2021/11/28 05:21:50;;;;;;;;;;;;;;;-15.90;89.87;100943.53;5136416;27;20043;-64
2021/11/28 05:24:17;;;;;;;;;;;;;;;-16.03;87.05;100938.66;5136333;27;20462;-63
2021/11/28 05:26:44;;;;;;;2.50;2.20;;;;;;;-16.16;88.91;100931.28;5135657;27;20376;-64
2021/11/28 05:29:14;;;;;;;1.80;1.70;;;;;;;-16.36;88.80;100926.06;5135720;27;20149;-63
2021/11/28 05:31:41;;;;;;;1.48;1.38;;;;;;;-16.39;88.63;100930.84;5135445;27;20485;-64
2021/11/28 05:34:08;;;;;;;3.38;2.15;;;;;;;-16.50;88.33;100929.41;5135728;27;20134;-63
2021/11/28 05:36:35;;;;;;;1.67;1.58;;;;;;;-16.60;89.47;100942.09;5135614;27;20081;-63
2021/11/28 05:39:02;;;;;;;1.17;1.17;;;;;;;-16.65;88.42;100938.50;5135672;27;20552;-63
2021/11/28 05:41:29;;;;;;;1.90;1.55;;;;;;;-16.61;88.25;100933.78;5135617;27;20126;-64
2021/11/28 05:43:56;;;;;;;1.88;1.63;;;;;;;-16.50;88.69;100939.38;5135478;27;20142;-63
2021/11/28 05:46:25;;;;;;;3.55;2.95;;;;;;;-16.53;89.18;100947.53;5135556;27;20051;-63
2021/11/28 05:48:52;;;;;;;3.75;2.10;;;;;;;-16.59;89.02;100937.22;5135364;27;20134;-64
2021/11/28 05:51:19;;;;;;;3.30;2.42;;;;;;;-16.52;89.53;100941.75;5135342;27;20130;-64
2021/11/28 05:53:46;;;;;;;1.73;1.63;;;;;;;-16.62;89.47;100941.16;5135354;27;20492;-64
2021/11/28 05:56:13;;;;;;;1.85;1.67;;;;;;;-16.46;89.60;100943.75;5135364;27;20480;-64
2021/11/28 05:58:40;;;;;;;2.67;2.28;;;;;;;-16.43;88.16;100948.91;5135166;27;20543;-64
2021/11/28 06:01:06;;;;;;;1.45;1.45;;;;;;;-16.51;88.96;100950.13;5135544;27;20082;-64
2021/11/28 06:03:35;;;;;;;2.92;2.22;;;;;;;-16.58;88.89;100950.53;5134895;27;20086;-64
2021/11/28 06:06:02;;;;;;;4.57;2.70;;;;;;;-16.84;89.31;100947.44;5135363;27;20116;-64
2021/11/28 06:08:29;;;;;;;1.20;1.13;;;;;;;-16.68;89.18;100952.47;5134397;27;20057;-63
2021/11/28 06:10:56;;;;;;;1.65;1.55;;;;;;;-16.74;88.77;100953.78;5135257;27;20114;-64
2021/11/28 06:13:24;;;;;;;2.08;1.75;;;;;;;-16.80;88.99;100954.28;5135323;27;20082;-64
2021/11/28 06:15:51;;;;;;;2.15;1.92;;;;;;;-16.61;88.86;100960.31;5135228;27;20126;-63
2021/11/28 06:18:18;;;;;;;2.58;2.33;;;;;;;-16.57;88.00;100962.19;5134834;27;20138;-63
2021/11/28 06:20:47;;;;;;;1.38;1.33;;;;;;;-16.60;87.35;100967.00;5134787;27;20497;-64
2021/11/28 06:23:14;;;;;;;3.35;2.28;;;;;;;-16.54;88.09;100970.72;5135092;27;20054;-64
2021/11/28 06:25:41;;;;;;;;;;;;;;;-16.61;87.96;100970.28;5135025;27;20563;-64
2021/11/28 06:28:08;;;;;;;;;;;;;;;-16.64;87.57;100983.41;5135471;27;19945;-64
2021/11/28 06:30:36;;;;;;;1.58;1.50;;;;;;;-16.79;85.70;100988.41;5134516;27;19919;-64
2021/11/28 06:33:03;;;;;;;1.73;1.63;;;;;;;-16.94;86.35;100982.50;5134802;27;20129;-64
2021/11/28 06:35:30;;;;;;;1.10;1.10;;;;;;;-16.98;84.46;100990.56;5134626;27;20051;-64
2021/11/28 06:37:59;;;;;;;1.88;1.77;;;;;;;-16.99;85.82;100987.22;5134761;27;20137;-64
2021/11/28 06:40:26;;;;;;;1.27;1.25;;;;;;;-17.09;84.83;100987.44;5134201;27;20054;-64
2021/11/28 06:42:53;;;;;;;2.13;2.03;;;;;;;-17.27;86.02;100996.28;5134338;27;20501;-64
2021/11/28 06:45:19;;;;;;;;;;;;;;;-17.12;87.58;100989.75;5134677;27;20053;-64
2021/11/28 06:47:47;;;;;;;1.30;1.20;;;;;;;-17.02;86.79;100998.63;5134603;27;19969;-63
2021/11/28 06:50:15;;;;;;;1.13;1.13;;;;;;;-16.92;87.08;100999.25;5134459;27;20047;-63
2021/11/28 06:52:42;;;;;;;4.32;2.72;;;;;;;-16.93;87.72;100999.16;5134206;27;20043;-64
2021/11/28 06:55:11;;;;;;;2.28;2.08;;;;;;;-16.73;87.35;101000.31;5134103;27;20583;-64
2021/11/28 06:57:38;;;;;;;1.27;1.27;;;;;;;-16.64;86.56;101003.34;5134199;27;20072;-64
2021/11/28 07:00:06;;;;;;;1.42;1.33;;;;;;;-16.61;87.33;101001.03;5134046;27;20427;-64
2021/11/28 07:02:34;;;;;;;2.20;1.85;;;;;;;-16.64;87.16;100990.88;5133746;27;20461;-64
2021/11/28 07:05:01;;;;;;;2.92;2.33;;;;;;;-16.58;87.82;100993.72;5134120;27;20122;-64
2021/11/28 07:07:28;;;;;;;1.23;1.23;;;;;;;-16.51;87.20;100998.28;5133996;27;20133;-64
2021/11/28 07:09:55;;;;;;;1.92;1.75;;;;;;;-16.52;86.25;101001.53;5133514;27;20532;-64
2021/11/28 07:12:24;;;;;;;5.50;3.72;;;;;;;-16.56;86.57;100993.81;5133375;27;20464;-64
2021/11/28 07:14:51;;;;;;;3.47;2.92;;;;;;;-16.65;87.79;100999.09;5134006;27;20074;-64
2021/11/28 07:17:18;;;;;;;;;;;;;;;-16.69;87.63;100995.59;5134172;27;20043;-63
2021/11/28 07:19:45;;;;;;;;;;;;;;;-16.67;86.33;100995.66;5133827;27;19972;-63
2021/11/28 07:22:12;;;;;;;2.13;2.03;;;;;;;-16.64;86.27;100998.34;5133645;27;19919;-64
2021/11/28 07:24:38;;;;;;;;;;;;;;;-16.76;87.09;100995.16;5133719;27;20558;-63
2021/11/28 07:27:05;;;;;;;;;;;;;;;-16.71;86.40;101001.25;5134184;27;19973;-64
2021/11/28 07:29:34;;;;;;;2.42;2.28;;;;;;;-16.81;86.04;101001.53;5133569;27;19919;-63
2021/11/28 07:32:01;;;;;;;3.85;2.58;;;;;;;-16.89;86.83;101005.19;5133355;27;20138;-63
2021/11/28 07:34:27;;;;;;;1.90;1.77;;;;;;;-16.93;86.10;101006.63;5133294;27;20446;-63
2021/11/28 07:36:54;;;;;;;1.40;1.40;;;;;;;-16.94;86.70;101004.91;5133509;27;20043;-63
2021/11/28 07:39:21;;;;;;;;;;;;;;;-16.97;86.52;101015.56;5133532;27;20141;-63
2021/11/28 07:41:50;;;;;;;1.67;1.58;;;;;;;-16.96;86.63;101002.31;5133312;27;19919;-63
2021/11/28 07:44:17;;;;;;;1.60;1.50;;;;;;;-16.88;87.08;101009.38;5133385;27;20047;-63
2021/11/28 07:46:45;;;;;;;;;;;;;;;-16.92;88.08;101013.34;5133767;27;20130;-63
2021/11/28 07:49:12;;;;;;;2.35;2.15;;;;;;;-16.86;87.85;101010.34;5133502;27;20343;-63
2021/11/28 07:51:39;;;;;;;1.55;1.42;;;;;;;-16.77;86.64;101019.19;5132750;27;20485;-64
2021/11/28 07:54:06;;;;;;;1.77;1.67;;;;;;;-16.65;86.86;101019.03;5133351;27;20142;-63
2021/11/28 07:56:33;;;;;;;;;;;;;;;-16.58;86.63;101020.25;5133638;27;20137;-63
2021/11/28 07:59:00;;;;;;;;;;;;;;;-16.59;86.41;101018.53;5133508;27;19970;-63
2021/11/28 08:01:27;;;;;;;2.03;1.80;;;;;;;-16.56;86.91;101027.06;5132624;27;20441;-63
2021/11/28 08:03:55;;;;;;;;;;;;;;;-16.44;86.53;101028.53;5133435;27;20519;-63
2021/11/28 08:06:22;;;;;;;2.72;2.17;;;;;;;-16.44;86.52;101026.88;5132700;27;20403;-63
2021/11/28 08:08:49;;;;;;;1.20;1.20;;;;;;;-16.46;87.47;101030.94;5132781;27;20180;-63
2021/11/28 08:11:16;;;;;;;;;;;;;;;-16.49;86.67;101029.13;5133638;28;20134;-63
2021/11/28 08:13:42;;;;;;;;;;;;;;;-16.38;87.84;101029.75;5133143;28;19919;-64
2021/11/28 08:16:09;;;;;;;5.07;2.70;;;;;;;-16.41;87.97;101036.16;5133234;28;19958;-63
2021/11/28 08:18:36;;;;;;;5.05;2.15;;;;;;;-16.32;87.85;101031.72;5132933;28;20075;-63
2021/11/28 08:21:04;;;;;;;1.00;1.00;;;;;;;-16.20;86.54;101031.56;5133079;28;20085;-63
2021/11/28 08:23:31;;;;;;;1.70;1.60;;;;;;;-16.20;87.55;101029.09;5132740;28;20142;-63
2021/11/28 08:25:58;;;;;;;3.70;1.85;;;;;;;-16.18;86.89;101032.50;5133144;28;20137;-63
2021/11/28 08:28:25;;;;;;;;;;;;;;;-16.11;86.21;101027.09;5132995;28;20535;-63
2021/11/28 08:30:53;;;;;;;1.00;1.00;;;;;;;-16.07;86.51;101024.00;5133885;27;20018;-63
2021/11/28 08:33:19;;;;;;;;;;;;;;;-16.08;86.08;101034.75;5137126;27;20049;-63
2021/11/28 08:35:46;;;;;;;1.77;1.40;;;;;;;-15.94;87.25;101033.03;5136924;27;19926;-63
2021/11/28 08:38:15;;;;;;;2.10;1.70;;;;;;;-15.86;87.33;101025.19;5137148;27;20153;-64
2021/11/28 08:40:42;;;;;;;5.47;3.20;;;;;;;-15.88;86.17;101030.88;5136850;27;20047;-64
2021/11/28 08:43:10;;;;;;;7.93;2.45;;;;;;;-15.83;86.31;101037.84;5136767;27;20053;-64
2021/11/28 08:45:39;;;;;;;2.30;2.10;;;;;;;-15.66;86.79;101043.72;5136252;27;20078;-64
2021/11/28 08:48:06;;;;;;;1.08;1.05;;;;;;;-15.68;86.85;101045.28;5136564;27;20073;-64
2021/11/28 08:50:34;;;;;;;1.77;1.67;;;;;;;-15.66;86.27;101043.72;5136269;27;20142;-64
2021/11/28 08:53:01;;;;;;;5.68;3.88;;;;;;;-15.66;86.13;101046.22;5136479;27;20054;-64
2021/11/28 08:55:30;;;;;;;1.10;1.10;;;;;;;-15.53;86.48;101042.78;5136504;27;20134;-64
2021/11/28 08:57:58;;;;;;;3.45;2.55;;;;;;;-15.58;86.22;101042.50;5136627;27;20082;-64
2021/11/28 09:00:24;;;;;;;;;;;;;;;-15.47;85.79;101044.72;5136886;27;20051;-64
2021/11/28 09:02:51;;;;;;;;;;;;;;;-15.42;85.11;101055.81;5137166;27;19961;-64
2021/11/28 09:05:19;;;;;;;2.70;2.50;;;;;;;-15.52;85.60;101051.97;5136324;27;20010;-64
2021/11/28 09:07:47;;;;;;;3.45;2.35;;;;;;;-15.61;85.37;101057.31;5136377;27;20454;-64
2021/11/28 09:10:16;;;;;;;1.25;1.23;;;;;;;-15.64;85.48;101058.75;5135921;27;20500;-64
2021/11/28 09:12:46;;;;;;;1.00;1.00;;;;;;;-15.73;86.14;101063.28;5136115;27;20126;-64
2021/11/28 09:15:14;;;;;;;2.25;2.13;;;;;;;-15.75;85.87;101057.34;5136045;27;20147;-64
2021/11/28 09:17:46;;;;;;;1.77;1.63;;;;;;;-15.85;85.91;101055.97;5136092;27;20408;-64
2021/11/28 09:20:14;;;;;;;6.72;2.92;;;;;;;-15.89;85.18;101054.97;5136000;27;20047;-64
2021/11/28 09:25:26;;;;;;;2.80;1.63;;;;;;;-16.10;84.88;101052.13;5135761;27;20588;-64
2021/11/28 09:27:57;;;;;;;3.40;2.65;;;;;;;-16.06;84.82;101056.50;5136114;27;20142;-64
2021/11/28 09:30:25;;;;;;;5.85;3.08;;;;;;;-16.21;84.65;101058.09;5135347;27;20047;-64
2021/11/28 09:32:54;;;;;;;5.13;2.67;;;;;;;-16.48;85.56;101058.25;5135611;27;20075;-64
2021/11/28 09:35:23;;;;;;;3.00;2.38;;;;;;;-16.30;84.89;101062.56;5135397;27;20043;-64
2021/11/28 09:37:50;;;;;;;3.88;3.00;;;;;;;-16.34;85.88;101060.66;5135618;27;20047;-64
2021/11/28 09:40:17;;;;;;;3.25;2.50;;;;;;;-16.27;85.40;101055.28;5135519;27;20481;-64
2021/11/28 09:42:50;;;;;;;;;;;;;;;-16.23;85.32;101062.16;5135142;27;20133;-64
2021/11/28 09:45:19;;;;;;;2.30;2.15;;;;;;;-16.24;84.91;101067.91;5135492;27;19919;-63
2021/11/28 09:47:47;;;;;;;4.60;1.70;;;;;;;-16.18;85.26;101068.28;5135377;27;20082;-64
2021/11/28 09:50:14;;;;;;;1.42;1.33;;;;;;;-16.21;82.57;101070.56;5135706;27;20043;-64
2021/11/28 09:52:41;;;;;;;;;;;;;;;-16.28;85.22;101068.53;5135407;27;20527;-64
2021/11/28 09:55:11;;;;;;;1.25;1.23;;;;;;;-16.36;83.78;101072.16;5135282;27;19954;-63
2021/11/28 09:57:39;;;;;;;2.47;2.03;;;;;;;-16.36;84.66;101070.56;5135441;27;20054;-64
2021/11/28 10:00:09;;;;;;;1.33;1.33;;;;;;;-16.31;84.60;101069.19;5135233;27;20053;-64
2021/11/28 10:02:38;;;;;;;3.38;3.05;;;;;;;-16.27;84.60;101073.56;5135151;27;20143;-63
2021/11/28 10:05:08;;;;;;;4.35;3.42;;;;;;;-16.18;83.62;101073.25;5135236;27;20147;-64
2021/11/28 10:07:35;;;;;;;3.00;2.55;;;;;;;-16.13;83.22;101073.50;5134704;27;20090;-64
2021/11/28 10:10:03;;;;;;;6.43;3.70;;;;;;;-16.14;82.92;101072.63;5134666;27;20579;-64
2021/11/28 10:12:31;;;;;;;3.65;2.92;;;;;;;-16.10;84.08;101072.06;5134577;27;20138;-64
2021/11/28 10:15:00;;;;;;;4.53;2.30;;;;;;;-15.96;83.94;101079.47;5134774;27;20524;-64
2021/11/28 10:17:29;;;;;;;4.13;2.65;;;;;;;-15.88;83.48;101081.59;5134841;27;20133;-64
2021/11/28 10:19:59;;;;;;;3.40;2.70;;;;;;;-16.11;83.95;101074.44;5134736;27;20481;-64
2021/11/28 10:22:28;;;;;;;4.38;2.67;;;;;;;-15.83;83.69;101080.22;5134875;27;20065;-64
2021/11/28 10:25:03;;;;;;;5.82;3.83;;;;;;;-15.88;85.08;101078.25;5134627;27;20047;-64
2021/11/28 10:27:42;;;;;;;4.13;2.40;;;;;;;-15.58;84.17;101084.91;5134425;27;20047;-64
2021/11/28 10:30:11;;;;;;;3.80;2.80;;;;;;;-15.67;84.61;101084.41;5134630;27;20498;-64
2021/11/28 10:32:43;;;;;;;4.50;2.28;;;;;;;-15.57;85.13;101081.63;5134582;27;20186;-64
2021/11/28 10:35:13;;;;;;;1.38;1.38;;;;;;;-15.45;84.58;101078.97;5134551;27;20475;-64
2021/11/28 10:37:42;;;;;;;2.67;2.30;;;;;;;-15.41;84.64;101072.50;5134448;27;20074;-64
2021/11/28 10:40:11;;;;;;;4.07;3.35;;;;;;;-15.66;85.18;101081.16;5134777;27;20043;-64
2021/11/28 10:42:39;;;;;;;4.28;2.63;;;;;;;-15.42;84.78;101080.78;5134494;27;20077;-64
2021/11/28 10:45:11;;;;;;;3.55;2.30;;;;;;;-15.32;84.19;101073.00;5134229;27;20055;-64
2021/11/28 10:47:40;;;;;;;1.13;1.13;;;;;;;-15.31;84.22;101074.72;5134277;27;20541;-64
2021/11/28 10:50:22;;;;;;;1.50;1.45;;;;;;;-15.49;85.21;101083.69;5134490;27;20079;-64
2021/11/28 10:52:52;;;;;;;3.08;2.80;;;;;;;-15.59;84.81;101087.31;5133735;27;20409;-64
2021/11/28 10:55:27;;;;;;;2.92;2.35;;;;;;;-15.60;84.82;101083.97;5133765;27;20050;-64
2021/11/28 10:58:06;;;;;;;5.00;2.92;;;;;;;-15.71;84.81;101082.56;5134140;27;20621;-64
2021/11/28 11:00:34;;;;;;;2.80;1.90;;;;;;;-15.60;85.58;101078.13;5133764;27;20078;-64
2021/11/28 11:03:17;;;;;;;1.95;1.83;;;;;;;-15.54;84.10;101082.59;5133989;27;20129;-64
2021/11/28 11:05:46;;;;;;;6.13;2.78;;;;;;;-15.58;84.55;101074.09;5134104;27;20047;-64
2021/11/28 11:08:15;;;;;;;2.33;1.80;;;;;;;-15.51;84.95;101078.66;5133769;27;20164;-64
2021/11/28 11:10:43;;;;;;;1.42;1.40;;;;;;;-15.47;85.07;101075.53;5133536;27;20089;-64
2021/11/28 11:13:14;;;;;;;2.80;2.17;;;;;;;-15.46;84.59;101081.38;5133615;27;20088;-64
2021/11/28 11:15:44;;;;;;;2.85;2.20;;;;;;;-15.56;86.01;101070.06;5133620;27;20054;-64
2021/11/28 11:18:15;;;;;;;2.05;1.88;;;;;;;-15.46;85.25;101064.78;5133743;27;20043;-64
2021/11/28 11:20:44;;;;;;;4.00;2.75;;;;;;;-15.48;85.09;101062.97;5133749;27;20071;-64
2021/11/28 11:23:38;;;;;;;3.83;2.58;;;;;;;-15.52;86.57;101066.06;5133663;27;20493;-64
2021/11/28 11:26:20;;;;;;;5.28;3.28;;;;;;;-15.53;86.21;101064.38;5134092;27;20054;-64
2021/11/28 11:29:07;;;;;;;3.95;2.92;;;;;;;-15.53;84.90;101067.72;5133587;27;20472;-64
2021/11/28 11:31:33;;;;;;;;;;;;;;;-15.35;85.20;101065.38;5133957;27;20047;-64
2021/11/28 11:34:00;;;;;;;;;;;;;;;-15.41;85.52;101060.91;5134091;27;20013;-64
2021/11/28 11:36:55;;;;;;;3.70;2.88;;;;;;;-15.39;85.53;101056.84;5133093;27;19958;-64